sensor_id;sensor_type;location;lat;lon;timestamp;pressure;altitude;pressure_sealevel;temperature;humidity
68179;BME280;54998;42.656;23.382;2022-09-21T00:01:04;95010.50;;;6.76;64.37
68179;BME280;54998;42.656;23.382;2022-09-21T00:03:29;95022.34;;;6.77;64.53
68179;BME280;54998;42.656;23.382;2022-09-21T00:06:04;95019.78;;;6.77;64.89
68179;BME280;54998;42.656;23.382;2022-09-21T00:08:30;95026.13;;;6.72;64.81
68179;BME280;54998;42.656;23.382;2022-09-21T00:10:56;95024.97;;;6.65;65.17
68179;BME280;54998;42.656;23.382;2022-09-21T00:13:21;95026.91;;;6.61;65.16
68179;BME280;54998;42.656;23.382;2022-09-21T00:15:46;95026.69;;;6.53;65.70
68179;BME280;54998;42.656;23.382;2022-09-21T00:18:12;95027.38;;;6.55;66.61
68179;BME280;54998;42.656;23.382;2022-09-21T00:20:40;95028.03;;;6.46;66.88
68179;BME280;54998;42.656;23.382;2022-09-21T00:23:07;95028.47;;;6.40;67.14
68179;BME280;54998;42.656;23.382;2022-09-21T00:25:33;95023.06;;;6.44;67.72
68179;BME280;54998;42.656;23.382;2022-09-21T00:27:58;95026.53;;;6.43;67.99
68179;BME280;54998;42.656;23.382;2022-09-21T00:30:23;95030.00;;;6.42;67.63
68179;BME280;54998;42.656;23.382;2022-09-21T00:32:49;95020.81;;;6.40;67.63
68179;BME280;54998;42.656;23.382;2022-09-21T00:35:14;95010.38;;;6.31;67.21
68179;BME280;54998;42.656;23.382;2022-09-21T00:37:40;95012.81;;;6.33;67.84
68179;BME280;54998;42.656;23.382;2022-09-21T00:40:06;95008.75;;;6.30;68.28
68179;BME280;54998;42.656;23.382;2022-09-21T00:42:33;95015.94;;;6.36;67.76
68179;BME280;54998;42.656;23.382;2022-09-21T00:44:59;95019.81;;;6.42;67.40
68179;BME280;54998;42.656;23.382;2022-09-21T00:47:46;95015.53;;;6.43;66.83
68179;BME280;54998;42.656;23.382;2022-09-21T00:50:15;95014.13;;;6.50;67.00
68179;BME280;54998;42.656;23.382;2022-09-21T00:52:48;95017.41;;;6.52;67.31
68179;BME280;54998;42.656;23.382;2022-09-21T00:55:22;95014.38;;;6.47;67.71
68179;BME280;54998;42.656;23.382;2022-09-21T00:57:52;95013.44;;;6.48;66.80
68179;BME280;54998;42.656;23.382;2022-09-21T01:00:20;95006.22;;;6.42;67.93
68179;BME280;54998;42.656;23.382;2022-09-21T01:02:46;95014.44;;;6.34;68.99
68179;BME280;54998;42.656;23.382;2022-09-21T01:05:12;95003.44;;;6.33;69.07
68179;BME280;54998;42.656;23.382;2022-09-21T01:07:41;95015.03;;;6.37;69.52
68179;BME280;54998;42.656;23.382;2022-09-21T01:10:17;95006.69;;;6.35;69.70
68179;BME280;54998;42.656;23.382;2022-09-21T01:13:15;95009.25;;;6.35;69.63
68179;BME280;54998;42.656;23.382;2022-09-21T01:18:24;95007.13;;;6.29;70.47
68179;BME280;54998;42.656;23.382;2022-09-21T01:34:23;94998.19;;;6.00;71.63
68179;BME280;54998;42.656;23.382;2022-09-21T01:36:53;94994.59;;;6.02;71.59
68179;BME280;54998;42.656;23.382;2022-09-21T01:39:22;94991.88;;;6.05;71.09
68179;BME280;54998;42.656;23.382;2022-09-21T01:41:49;94993.56;;;6.05;71.48
68179;BME280;54998;42.656;23.382;2022-09-21T01:44:22;94993.38;;;6.08;71.42
68179;BME280;54998;42.656;23.382;2022-09-21T01:46:49;94988.97;;;6.10;71.37
68179;BME280;54998;42.656;23.382;2022-09-21T01:49:20;94991.72;;;6.07;71.35
68179;BME280;54998;42.656;23.382;2022-09-21T01:51:51;94985.72;;;6.08;71.14
68179;BME280;54998;42.656;23.382;2022-09-21T01:54:21;94989.41;;;6.04;71.33
68179;BME280;54998;42.656;23.382;2022-09-21T01:56:58;94987.66;;;6.04;71.44
68179;BME280;54998;42.656;23.382;2022-09-21T01:59:32;94996.03;;;6.06;71.58
68179;BME280;54998;42.656;23.382;2022-09-21T02:02:11;94990.78;;;5.96;71.38
68179;BME280;54998;42.656;23.382;2022-09-21T02:04:38;94988.34;;;5.95;71.73
68179;BME280;54998;42.656;23.382;2022-09-21T02:07:04;94984.84;;;5.96;71.12
68179;BME280;54998;42.656;23.382;2022-09-21T02:09:30;94999.84;;;5.88;71.37
68179;BME280;54998;42.656;23.382;2022-09-21T02:11:55;94997.19;;;5.89;71.44
68179;BME280;54998;42.656;23.382;2022-09-21T02:14:23;95001.13;;;5.93;71.68
68179;BME280;54998;42.656;23.382;2022-09-21T02:19:45;94996.78;;;5.95;71.92
68179;BME280;54998;42.656;23.382;2022-09-21T02:22:21;94994.13;;;5.97;71.31
68179;BME280;54998;42.656;23.382;2022-09-21T02:24:57;95000.97;;;5.96;71.34
68179;BME280;54998;42.656;23.382;2022-09-21T02:30:08;95011.88;;;5.99;71.73
68179;BME280;54998;42.656;23.382;2022-09-21T02:35:31;95006.06;;;5.96;71.99
68179;BME280;54998;42.656;23.382;2022-09-21T02:40:42;95002.69;;;5.96;71.99
68179;BME280;54998;42.656;23.382;2022-09-21T02:43:23;94996.28;;;5.90;71.95
68179;BME280;54998;42.656;23.382;2022-09-21T02:46:28;95012.38;;;5.91;72.45
68179;BME280;54998;42.656;23.382;2022-09-21T02:49:06;95008.72;;;5.82;72.39
68179;BME280;54998;42.656;23.382;2022-09-21T02:51:41;95009.44;;;5.84;73.20
68179;BME280;54998;42.656;23.382;2022-09-21T02:54:10;95002.22;;;5.78;72.90
68179;BME280;54998;42.656;23.382;2022-09-21T02:56:38;95013.84;;;5.69;73.29
68179;BME280;54998;42.656;23.382;2022-09-21T02:59:05;95011.63;;;5.65;72.73
68179;BME280;54998;42.656;23.382;2022-09-21T03:01:32;95015.53;;;5.58;73.31
68179;BME280;54998;42.656;23.382;2022-09-21T03:03:57;95013.00;;;5.58;73.68
68179;BME280;54998;42.656;23.382;2022-09-21T03:06:23;95012.06;;;5.46;73.60
68179;BME280;54998;42.656;23.382;2022-09-21T03:08:48;95013.63;;;5.35;73.90
68179;BME280;54998;42.656;23.382;2022-09-21T03:11:18;95018.69;;;5.35;73.65
68179;BME280;54998;42.656;23.382;2022-09-21T03:13:44;95013.34;;;5.27;73.78
68179;BME280;54998;42.656;23.382;2022-09-21T03:16:12;95012.44;;;5.15;74.17
68179;BME280;54998;42.656;23.382;2022-09-21T03:18:38;95015.28;;;5.11;74.27
68179;BME280;54998;42.656;23.382;2022-09-21T03:21:04;95007.25;;;5.04;74.30
68179;BME280;54998;42.656;23.382;2022-09-21T03:23:30;95003.50;;;4.97;74.30
68179;BME280;54998;42.656;23.382;2022-09-21T03:25:55;95001.13;;;4.81;75.04
68179;BME280;54998;42.656;23.382;2022-09-21T03:28:21;95012.56;;;4.88;75.00
68179;BME280;54998;42.656;23.382;2022-09-21T03:30:48;95010.50;;;4.81;75.11
68179;BME280;54998;42.656;23.382;2022-09-21T03:33:14;95017.31;;;4.80;75.30
68179;BME280;54998;42.656;23.382;2022-09-21T03:35:40;95016.91;;;4.73;75.67
68179;BME280;54998;42.656;23.382;2022-09-21T03:38:06;95006.75;;;4.73;75.29
68179;BME280;54998;42.656;23.382;2022-09-21T03:40:32;95009.19;;;4.75;75.36
68179;BME280;54998;42.656;23.382;2022-09-21T03:42:58;95013.25;;;4.78;75.11
68179;BME280;54998;42.656;23.382;2022-09-21T03:45:23;95008.47;;;4.73;75.09
68179;BME280;54998;42.656;23.382;2022-09-21T03:47:58;95019.13;;;4.65;74.98
68179;BME280;54998;42.656;23.382;2022-09-21T03:50:27;95013.72;;;4.57;75.07
68179;BME280;54998;42.656;23.382;2022-09-21T03:52:54;95023.47;;;4.50;75.91
68179;BME280;54998;42.656;23.382;2022-09-21T03:55:19;95025.31;;;4.48;75.87
68179;BME280;54998;42.656;23.382;2022-09-21T03:57:45;95028.56;;;4.50;75.88
68179;BME280;54998;42.656;23.382;2022-09-21T04:00:12;95026.56;;;4.56;75.75
68179;BME280;54998;42.656;23.382;2022-09-21T04:02:38;95028.97;;;4.57;75.58
68179;BME280;54998;42.656;23.382;2022-09-21T04:05:11;95029.91;;;4.56;75.58
68179;BME280;54998;42.656;23.382;2022-09-21T04:07:39;95028.38;;;4.53;75.93
68179;BME280;54998;42.656;23.382;2022-09-21T04:10:06;95026.81;;;4.51;75.52
68179;BME280;54998;42.656;23.382;2022-09-21T04:12:33;95026.81;;;4.51;75.92
68179;BME280;54998;42.656;23.382;2022-09-21T04:15:01;95027.56;;;4.66;75.78
68179;BME280;54998;42.656;23.382;2022-09-21T04:17:28;95032.34;;;4.70;75.25
68179;BME280;54998;42.656;23.382;2022-09-21T04:19:53;95031.16;;;4.76;75.00
68179;BME280;54998;42.656;23.382;2022-09-21T04:22:19;95024.94;;;4.80;75.47
68179;BME280;54998;42.656;23.382;2022-09-21T04:24:44;95025.34;;;4.87;74.86
68179;BME280;54998;42.656;23.382;2022-09-21T04:27:10;95029.13;;;4.94;74.59
68179;BME280;54998;42.656;23.382;2022-09-21T04:29:36;95026.56;;;5.07;74.33
68179;BME280;54998;42.656;23.382;2022-09-21T04:32:02;95033.41;;;5.06;74.55
68179;BME280;54998;42.656;23.382;2022-09-21T04:34:29;95030.03;;;5.19;74.21
68179;BME280;54998;42.656;23.382;2022-09-21T04:36:55;95030.94;;;5.30;74.21
68179;BME280;54998;42.656;23.382;2022-09-21T04:41:52;95029.81;;;5.97;74.54
68179;BME280;54998;42.656;23.382;2022-09-21T04:44:18;95028.22;;;7.25;70.61
68179;BME280;54998;42.656;23.382;2022-09-21T04:46:43;95022.00;;;7.84;66.50
68179;BME280;54998;42.656;23.382;2022-09-21T04:49:09;95029.53;;;7.96;65.26
68179;BME280;54998;42.656;23.382;2022-09-21T04:51:35;95034.13;;;8.14;64.50
68179;BME280;54998;42.656;23.382;2022-09-21T04:54:01;95022.47;;;9.07;62.11
68179;BME280;54998;42.656;23.382;2022-09-21T04:56:26;95035.03;;;9.91;59.30
68179;BME280;54998;42.656;23.382;2022-09-21T04:58:51;95035.66;;;10.82;55.67
68179;BME280;54998;42.656;23.382;2022-09-21T05:01:17;95033.06;;;11.01;55.48
68179;BME280;54998;42.656;23.382;2022-09-21T05:03:42;95025.50;;;11.00;55.10
68179;BME280;54998;42.656;23.382;2022-09-21T05:06:08;95037.22;;;10.05;56.37
68179;BME280;54998;42.656;23.382;2022-09-21T05:08:35;95040.19;;;9.50;58.62
68179;BME280;54998;42.656;23.382;2022-09-21T05:11:20;95037.75;;;9.18;59.04
68179;BME280;54998;42.656;23.382;2022-09-21T05:13:46;95039.09;;;9.53;58.50
68179;BME280;54998;42.656;23.382;2022-09-21T05:16:12;95035.66;;;9.33;58.70
68179;BME280;54998;42.656;23.382;2022-09-21T05:18:37;95033.81;;;9.85;57.43
68179;BME280;54998;42.656;23.382;2022-09-21T05:21:03;95040.25;;;9.70;57.47
68179;BME280;54998;42.656;23.382;2022-09-21T05:23:30;95035.81;;;10.80;54.64
68179;BME280;54998;42.656;23.382;2022-09-21T05:25:56;95036.69;;;11.56;51.76
68179;BME280;54998;42.656;23.382;2022-09-21T05:28:22;95035.94;;;11.73;51.07
68179;BME280;54998;42.656;23.382;2022-09-21T05:33:28;95032.63;;;13.42;46.75
68179;BME280;54998;42.656;23.382;2022-09-21T05:38:58;95025.84;;;14.26;43.45
68179;BME280;54998;42.656;23.382;2022-09-21T05:41:23;95033.91;;;13.72;45.05
68179;BME280;54998;42.656;23.382;2022-09-21T05:43:49;95033.63;;;13.23;46.62
68179;BME280;54998;42.656;23.382;2022-09-21T05:46:37;95025.31;;;15.62;41.22
68179;BME280;54998;42.656;23.382;2022-09-21T05:49:35;95028.66;;;14.74;42.37
68179;BME280;54998;42.656;23.382;2022-09-21T05:55:06;95029.88;;;14.21;43.30
68179;BME280;54998;42.656;23.382;2022-09-21T06:03:30;95030.59;;;13.54;45.71
68179;BME280;54998;42.656;23.382;2022-09-21T06:05:57;95030.47;;;13.64;45.55
68179;BME280;54998;42.656;23.382;2022-09-21T06:08:24;95037.16;;;13.48;45.56
68179;BME280;54998;42.656;23.382;2022-09-21T06:10:49;95033.00;;;13.03;46.19
68179;BME280;54998;42.656;23.382;2022-09-21T06:13:15;95034.06;;;12.74;47.51
68179;BME280;54998;42.656;23.382;2022-09-21T06:15:41;95028.44;;;12.53;48.39
68179;BME280;54998;42.656;23.382;2022-09-21T06:18:08;95034.84;;;12.67;48.01
68179;BME280;54998;42.656;23.382;2022-09-21T06:20:34;95039.19;;;13.10;47.36
68179;BME280;54998;42.656;23.382;2022-09-21T06:23:04;95042.31;;;13.83;46.00
68179;BME280;54998;42.656;23.382;2022-09-21T06:25:30;95043.13;;;14.26;44.71
68179;BME280;54998;42.656;23.382;2022-09-21T06:28:00;95038.69;;;14.02;45.53
68179;BME280;54998;42.656;23.382;2022-09-21T06:30:26;95032.66;;;15.42;42.16
68179;BME280;54998;42.656;23.382;2022-09-21T06:32:51;95042.53;;;15.94;41.26
68179;BME280;54998;42.656;23.382;2022-09-21T06:35:17;95047.38;;;15.89;41.48
68179;BME280;54998;42.656;23.382;2022-09-21T06:37:42;95043.53;;;16.25;40.66
68179;BME280;54998;42.656;23.382;2022-09-21T06:40:08;95041.75;;;16.17;40.96
68179;BME280;54998;42.656;23.382;2022-09-21T06:42:33;95052.16;;;14.46;44.26
68179;BME280;54998;42.656;23.382;2022-09-21T06:44:58;95056.72;;;15.43;42.56
68179;BME280;54998;42.656;23.382;2022-09-21T06:47:24;95044.03;;;16.20;40.76
68179;BME280;54998;42.656;23.382;2022-09-21T06:49:49;95050.41;;;16.09;41.14
68179;BME280;54998;42.656;23.382;2022-09-21T06:52:17;95049.47;;;16.56;40.19
68179;BME280;54998;42.656;23.382;2022-09-21T06:54:43;95050.75;;;17.74;38.07
68179;BME280;54998;42.656;23.382;2022-09-21T06:57:09;95054.91;;;19.21;35.94
68179;BME280;54998;42.656;23.382;2022-09-21T06:59:34;95049.44;;;16.88;38.87
68179;BME280;54998;42.656;23.382;2022-09-21T07:02:02;95050.44;;;18.29;37.64
68179;BME280;54998;42.656;23.382;2022-09-21T07:04:28;95043.56;;;19.85;34.20
68179;BME280;54998;42.656;23.382;2022-09-21T07:06:54;95045.47;;;17.82;38.17
68179;BME280;54998;42.656;23.382;2022-09-21T07:09:20;95042.97;;;18.62;36.41
68179;BME280;54998;42.656;23.382;2022-09-21T07:11:45;95042.22;;;16.75;40.13
68179;BME280;54998;42.656;23.382;2022-09-21T07:14:11;95048.09;;;16.69;40.57
68179;BME280;54998;42.656;23.382;2022-09-21T07:16:38;95043.50;;;15.05;43.93
68179;BME280;54998;42.656;23.382;2022-09-21T07:19:04;95042.28;;;15.56;43.23
68179;BME280;54998;42.656;23.382;2022-09-21T07:21:30;95046.47;;;15.74;43.10
68179;BME280;54998;42.656;23.382;2022-09-21T07:23:58;95050.63;;;15.11;43.97
68179;BME280;54998;42.656;23.382;2022-09-21T07:26:24;95036.56;;;15.22;44.04
68179;BME280;54998;42.656;23.382;2022-09-21T07:28:49;95045.47;;;14.62;45.47
68179;BME280;54998;42.656;23.382;2022-09-21T07:31:15;95056.06;;;13.57;47.93
68179;BME280;54998;42.656;23.382;2022-09-21T07:33:42;95038.66;;;12.63;50.61
68179;BME280;54998;42.656;23.382;2022-09-21T07:36:09;95049.75;;;13.25;49.81
68179;BME280;54998;42.656;23.382;2022-09-21T07:38:41;95052.34;;;13.86;47.92
68179;BME280;54998;42.656;23.382;2022-09-21T07:41:08;95054.41;;;14.33;47.24
68179;BME280;54998;42.656;23.382;2022-09-21T07:43:34;95052.56;;;14.60;46.05
68179;BME280;54998;42.656;23.382;2022-09-21T07:45:59;95042.03;;;13.25;49.07
68179;BME280;54998;42.656;23.382;2022-09-21T07:48:28;95046.69;;;12.78;50.78
68179;BME280;54998;42.656;23.382;2022-09-21T07:50:54;95051.28;;;12.92;51.08
68179;BME280;54998;42.656;23.382;2022-09-21T07:53:21;95047.00;;;13.27;49.82
68179;BME280;54998;42.656;23.382;2022-09-21T07:55:47;95050.91;;;13.57;48.70
68179;BME280;54998;42.656;23.382;2022-09-21T07:58:12;95049.00;;;14.02;47.77
68179;BME280;54998;42.656;23.382;2022-09-21T08:00:56;95046.28;;;14.03;47.92
68179;BME280;54998;42.656;23.382;2022-09-21T08:03:21;95045.44;;;14.03;47.49
68179;BME280;54998;42.656;23.382;2022-09-21T08:05:47;95054.22;;;14.10;47.98
68179;BME280;54998;42.656;23.382;2022-09-21T08:08:12;95055.31;;;13.99;47.39
68179;BME280;54998;42.656;23.382;2022-09-21T08:10:37;95046.81;;;13.46;49.50
68179;BME280;54998;42.656;23.382;2022-09-21T08:13:04;95035.44;;;14.91;45.58
68179;BME280;54998;42.656;23.382;2022-09-21T08:15:29;95052.81;;;14.48;46.42
68179;BME280;54998;42.656;23.382;2022-09-21T08:17:54;95050.63;;;14.78;45.62
68179;BME280;54998;42.656;23.382;2022-09-21T08:20:21;95049.00;;;14.85;45.44
68179;BME280;54998;42.656;23.382;2022-09-21T08:22:47;95050.16;;;14.66;45.49
68179;BME280;54998;42.656;23.382;2022-09-21T08:25:12;95045.47;;;14.78;44.56
68179;BME280;54998;42.656;23.382;2022-09-21T08:27:38;95044.31;;;14.72;45.53
68179;BME280;54998;42.656;23.382;2022-09-21T08:30:05;95042.72;;;15.20;44.37
68179;BME280;54998;42.656;23.382;2022-09-21T08:32:31;95047.63;;;16.11;42.62
68179;BME280;54998;42.656;23.382;2022-09-21T08:34:57;95036.31;;;17.27;40.31
68179;BME280;54998;42.656;23.382;2022-09-21T08:37:22;95033.81;;;17.34;39.23
68179;BME280;54998;42.656;23.382;2022-09-21T08:39:48;95036.38;;;16.81;40.08
68179;BME280;54998;42.656;23.382;2022-09-21T08:42:37;95026.88;;;15.15;43.79
68179;BME280;54998;42.656;23.382;2022-09-21T08:45:09;95034.31;;;15.18;44.63
68179;BME280;54998;42.656;23.382;2022-09-21T08:47:48;95045.16;;;15.14;44.04
68179;BME280;54998;42.656;23.382;2022-09-21T08:52:59;95022.41;;;16.59;39.96
68179;BME280;54998;42.656;23.382;2022-09-21T08:55:25;95030.53;;;17.02;38.62
68179;BME280;54998;42.656;23.382;2022-09-21T08:57:51;95025.44;;;16.94;38.91
68179;BME280;54998;42.656;23.382;2022-09-21T09:00:18;95027.81;;;15.95;40.48
68179;BME280;54998;42.656;23.382;2022-09-21T09:05:58;95017.41;;;15.55;41.05
68179;BME280;54998;42.656;23.382;2022-09-21T09:09:23;95014.00;;;16.02;39.81
68179;BME280;54998;42.656;23.382;2022-09-21T09:11:59;95003.78;;;16.09;39.91
68179;BME280;54998;42.656;23.382;2022-09-21T09:19:55;94998.81;;;16.77;39.56
68179;BME280;54998;42.656;23.382;2022-09-21T09:22:33;95005.34;;;18.00;37.71
68179;BME280;54998;42.656;23.382;2022-09-21T09:25:12;94999.69;;;18.11;36.40
68179;BME280;54998;42.656;23.382;2022-09-21T09:27:41;94991.22;;;17.28;36.84
68179;BME280;54998;42.656;23.382;2022-09-21T09:30:27;94996.25;;;16.46;39.09
68179;BME280;54998;42.656;23.382;2022-09-21T09:33:01;94989.31;;;16.46;39.12
68179;BME280;54998;42.656;23.382;2022-09-21T09:35:53;94992.13;;;16.36;39.28
68179;BME280;54998;42.656;23.382;2022-09-21T09:38:43;94984.47;;;16.43;39.61
68179;BME280;54998;42.656;23.382;2022-09-21T09:43:57;94985.53;;;15.71;41.10
68179;BME280;54998;42.656;23.382;2022-09-21T09:51:50;94971.28;;;15.75;41.22
68179;BME280;54998;42.656;23.382;2022-09-21T09:54:17;94969.63;;;16.60;39.38
68179;BME280;54998;42.656;23.382;2022-09-21T09:56:44;94961.16;;;16.66;38.94
68179;BME280;54998;42.656;23.382;2022-09-21T10:01:58;94963.47;;;17.73;36.11
68179;BME280;54998;42.656;23.382;2022-09-21T10:04:24;94957.97;;;19.40;33.61
68179;BME280;54998;42.656;23.382;2022-09-21T10:06:49;94952.97;;;19.74;32.74
68179;BME280;54998;42.656;23.382;2022-09-21T10:09:27;94941.16;;;21.06;29.81
68179;BME280;54998;42.656;23.382;2022-09-21T10:11:56;94943.56;;;20.67;30.10
68179;BME280;54998;42.656;23.382;2022-09-21T10:14:24;94943.88;;;20.11;30.82
68179;BME280;54998;42.656;23.382;2022-09-21T10:16:52;94942.50;;;18.76;33.22
68179;BME280;54998;42.656;23.382;2022-09-21T10:19:24;94925.41;;;18.17;34.11
68179;BME280;54998;42.656;23.382;2022-09-21T10:21:55;94947.41;;;17.99;34.17
68179;BME280;54998;42.656;23.382;2022-09-21T10:24:28;94929.84;;;19.57;30.69
68179;BME280;54998;42.656;23.382;2022-09-21T10:32:04;94930.81;;;18.37;33.28
68179;BME280;54998;42.656;23.382;2022-09-21T10:34:33;94919.22;;;18.61;33.10
68179;BME280;54998;42.656;23.382;2022-09-21T10:37:01;94927.81;;;18.61;32.34
68179;BME280;54998;42.656;23.382;2022-09-21T10:39:31;94927.59;;;18.35;32.63
68179;BME280;54998;42.656;23.382;2022-09-21T10:42:12;94917.59;;;18.60;32.66
68179;BME280;54998;42.656;23.382;2022-09-21T10:47:34;94918.25;;;21.01;28.99
68179;BME280;54998;42.656;23.382;2022-09-21T10:50:03;94907.75;;;21.41;27.80
68179;BME280;54998;42.656;23.382;2022-09-21T10:52:41;94899.09;;;19.33;30.71
68179;BME280;54998;42.656;23.382;2022-09-21T10:55:15;94908.56;;;21.35;27.83
68179;BME280;54998;42.656;23.382;2022-09-21T10:57:42;94901.13;;;23.04;25.65
68179;BME280;54998;42.656;23.382;2022-09-21T11:00:27;94911.19;;;23.63;24.96
68179;BME280;54998;42.656;23.382;2022-09-21T11:03:29;94899.75;;;21.16;26.35
68179;BME280;54998;42.656;23.382;2022-09-21T11:06:15;94893.41;;;20.79;27.46
68179;BME280;54998;42.656;23.382;2022-09-21T11:08:52;94878.72;;;19.91;28.73
68179;BME280;54998;42.656;23.382;2022-09-21T11:11:58;94890.97;;;20.17;28.30
68179;BME280;54998;42.656;23.382;2022-09-21T11:14:58;94897.69;;;21.38;26.20
68179;BME280;54998;42.656;23.382;2022-09-21T11:17:44;94892.19;;;20.28;27.79
68179;BME280;54998;42.656;23.382;2022-09-21T11:28:49;94885.28;;;19.80;28.72
68179;BME280;54998;42.656;23.382;2022-09-21T11:34:20;94884.16;;;17.85;31.54
68179;BME280;54998;42.656;23.382;2022-09-21T11:46:03;94882.72;;;16.34;34.18
68179;BME280;54998;42.656;23.382;2022-09-21T12:22:26;94941.75;;;13.40;47.83
68179;BME280;54998;42.656;23.382;2022-09-21T12:24:58;94942.06;;;13.11;47.84
68179;BME280;54998;42.656;23.382;2022-09-21T12:27:39;94942.22;;;13.35;46.94
68179;BME280;54998;42.656;23.382;2022-09-21T12:30:17;94945.22;;;14.65;44.16
68179;BME280;54998;42.656;23.382;2022-09-21T12:33:03;94941.00;;;15.84;41.16
68179;BME280;54998;42.656;23.382;2022-09-21T12:35:49;94937.28;;;15.78;40.77
68179;BME280;54998;42.656;23.382;2022-09-21T12:41:21;94934.25;;;15.75;41.63
68179;BME280;54998;42.656;23.382;2022-09-21T12:49:25;94929.56;;;16.01;40.11
68179;BME280;54998;42.656;23.382;2022-09-21T12:51:56;94929.41;;;16.26;39.90
68179;BME280;54998;42.656;23.382;2022-09-21T12:59:59;94927.22;;;15.52;41.05
68179;BME280;54998;42.656;23.382;2022-09-21T13:02:45;94923.31;;;15.09;42.17
68179;BME280;54998;42.656;23.382;2022-09-21T13:08:09;94926.19;;;14.58;42.98
68179;BME280;54998;42.656;23.382;2022-09-21T13:10:54;94923.91;;;14.79;42.56
68179;BME280;54998;42.656;23.382;2022-09-21T13:13:28;94928.88;;;14.89;42.65
68179;BME280;54998;42.656;23.382;2022-09-21T13:15:56;94917.59;;;14.33;44.37
68179;BME280;54998;42.656;23.382;2022-09-21T13:18:31;94920.16;;;14.08;44.67
68179;BME280;54998;42.656;23.382;2022-09-21T13:21:00;94931.16;;;14.43;43.88
68179;BME280;54998;42.656;23.382;2022-09-21T13:23:36;94927.28;;;14.39;44.33
68179;BME280;54998;42.656;23.382;2022-09-21T13:26:11;94920.16;;;13.84;44.95
68179;BME280;54998;42.656;23.382;2022-09-21T13:28:45;94924.81;;;13.80;44.15
68179;BME280;54998;42.656;23.382;2022-09-21T13:34:20;94917.66;;;13.58;45.20
68179;BME280;54998;42.656;23.382;2022-09-21T13:44:54;94915.41;;;13.63;44.30
68179;BME280;54998;42.656;23.382;2022-09-21T13:49:54;94913.97;;;13.26;44.54
68179;BME280;54998;42.656;23.382;2022-09-21T13:52:29;94904.66;;;13.75;42.67
68179;BME280;54998;42.656;23.382;2022-09-21T13:54:59;94905.97;;;14.29;41.48
68179;BME280;54998;42.656;23.382;2022-09-21T13:57:38;94897.25;;;14.46;40.49
68179;BME280;54998;42.656;23.382;2022-09-21T14:00:23;94910.75;;;13.74;41.36
68179;BME280;54998;42.656;23.382;2022-09-21T14:07:55;94902.91;;;14.09;41.27
68179;BME280;54998;42.656;23.382;2022-09-21T14:10:27;94896.63;;;14.03;41.78
68179;BME280;54998;42.656;23.382;2022-09-21T14:12:57;94898.53;;;13.85;41.63
68179;BME280;54998;42.656;23.382;2022-09-21T14:20:36;94890.31;;;13.89;41.93
68179;BME280;54998;42.656;23.382;2022-09-21T14:25:55;94890.56;;;13.53;41.08
68179;BME280;54998;42.656;23.382;2022-09-21T14:31:02;94888.97;;;13.18;41.70
68179;BME280;54998;42.656;23.382;2022-09-21T14:33:30;94888.28;;;13.08;42.58
68179;BME280;54998;42.656;23.382;2022-09-21T14:36:05;94880.25;;;13.11;42.42
68179;BME280;54998;42.656;23.382;2022-09-21T14:38:42;94879.72;;;13.07;42.71
68179;BME280;54998;42.656;23.382;2022-09-21T14:41:14;94880.66;;;12.98;43.33
68179;BME280;54998;42.656;23.382;2022-09-21T14:43:48;94880.63;;;12.90;43.25
68179;BME280;54998;42.656;23.382;2022-09-21T15:00:34;94883.00;;;12.83;43.05
68179;BME280;54998;42.656;23.382;2022-09-21T15:05:54;94890.00;;;12.65;43.13
68179;BME280;54998;42.656;23.382;2022-09-21T15:08:45;94897.06;;;12.63;43.66
68179;BME280;54998;42.656;23.382;2022-09-21T15:11:52;94892.84;;;12.62;43.93
68179;BME280;54998;42.656;23.382;2022-09-21T15:16:50;94902.28;;;12.79;43.66
68179;BME280;54998;42.656;23.382;2022-09-21T15:19:26;94908.69;;;12.49;44.72
68179;BME280;54998;42.656;23.382;2022-09-21T15:22:10;94903.41;;;12.50;44.66
68179;BME280;54998;42.656;23.382;2022-09-21T15:24:48;94900.75;;;12.60;44.62
68179;BME280;54998;42.656;23.382;2022-09-21T15:27:16;94904.72;;;12.54;43.69
68179;BME280;54998;42.656;23.382;2022-09-21T15:29:47;94913.53;;;12.26;44.41
68179;BME280;54998;42.656;23.382;2022-09-21T15:34:59;94908.84;;;12.21;43.93
68179;BME280;54998;42.656;23.382;2022-09-21T15:37:26;94917.34;;;12.22;42.59
68179;BME280;54998;42.656;23.382;2022-09-21T15:39:59;94915.00;;;12.28;42.98
68179;BME280;54998;42.656;23.382;2022-09-21T15:42:26;94914.69;;;12.31;42.33
68179;BME280;54998;42.656;23.382;2022-09-21T15:45:03;94918.22;;;12.30;42.47
68179;BME280;54998;42.656;23.382;2022-09-21T15:47:36;94924.75;;;12.25;42.50
68179;BME280;54998;42.656;23.382;2022-09-21T15:50:02;94927.66;;;12.22;42.73
68179;BME280;54998;42.656;23.382;2022-09-21T15:52:36;94929.19;;;12.32;44.14
68179;BME280;54998;42.656;23.382;2022-09-21T15:55:12;94934.88;;;12.44;45.37
68179;BME280;54998;42.656;23.382;2022-09-21T15:57:41;94937.47;;;12.44;46.35
68179;BME280;54998;42.656;23.382;2022-09-21T16:02:39;94939.97;;;12.18;46.37
68179;BME280;54998;42.656;23.382;2022-09-21T16:05:10;94940.88;;;12.09;47.72
68179;BME280;54998;42.656;23.382;2022-09-21T16:07:38;94937.41;;;12.18;47.33
68179;BME280;54998;42.656;23.382;2022-09-21T16:13:19;94954.00;;;11.88;49.22
68179;BME280;54998;42.656;23.382;2022-09-21T16:16:13;94954.16;;;11.86;49.13
68179;BME280;54998;42.656;23.382;2022-09-21T16:18:47;94947.25;;;11.59;49.41
68179;BME280;54998;42.656;23.382;2022-09-21T16:21:33;94956.69;;;11.41;50.01
68179;BME280;54998;42.656;23.382;2022-09-21T16:24:16;94959.72;;;11.26;50.54
68179;BME280;54998;42.656;23.382;2022-09-21T16:26:56;94963.94;;;11.18;50.92
68179;BME280;54998;42.656;23.382;2022-09-21T16:29:23;94953.31;;;11.13;50.96
68179;BME280;54998;42.656;23.382;2022-09-21T16:31:50;94958.69;;;11.09;51.40
68179;BME280;54998;42.656;23.382;2022-09-21T16:34:19;94962.91;;;11.01;51.68